Time;durP1;ratioP1;P1;durP2;ratioP2;P2;SDS_P1;SDS_P2;PMS_P1;PMS_P2;Temp;Humidity;BMP_temperature;BMP_pressure;BME280_temperature;BME280_humidity;BME280_pressure;Samples;Min_cycle;Max_cycle;Signal;HPM_P1;HPM_P2
2023/08/01 00:01:58;;;;;;;7.03;5.50;;;;;;;-143.84;83.64;45094.78;4990486;28;20438;-56
2023/08/01 00:04:25;;;;;;;6.47;5.87;;;;;;;-143.84;83.69;45077.63;4990122;28;20456;-55
2023/08/01 00:06:52;;;;;;;6.30;5.80;;;;;;;-143.84;83.95;45073.81;4990047;28;20584;-55
2023/08/01 00:09:20;;;;;;;5.80;5.30;;;;;;;-143.84;83.92;45098.56;4990377;28;20483;-55
2023/08/01 00:11:47;;;;;;;5.63;5.13;;;;;;;-143.84;84.17;45077.63;4990166;28;20441;-55
2023/08/01 00:14:14;;;;;;;6.30;5.70;;;;;;;-143.84;84.27;45098.56;4989935;28;21010;-55
2023/08/01 00:16:42;;;;;;;9.93;6.07;;;;;;;-143.84;84.50;45087.16;4990105;28;20446;-55
2023/08/01 00:19:09;;;;;;;9.77;5.80;;;;;;;-143.84;84.74;45083.34;4989704;28;20456;-55
2023/08/01 00:21:36;;;;;;;7.63;5.70;;;;;;;-143.84;85.06;45100.47;4989682;28;20453;-55
2023/08/01 00:24:03;;;;;;;6.50;5.57;;;;;;;-143.84;85.48;45094.78;4989588;28;20442;-55
2023/08/01 00:26:32;;;;;;;6.80;6.10;;;;;;;-143.84;85.69;45085.25;4989680;28;21143;-55
2023/08/01 00:28:59;;;;;;;6.00;5.50;;;;;;;-143.84;86.04;45087.16;4989696;28;20484;-55
2023/08/01 00:31:26;;;;;;;6.43;5.80;;;;;;;-143.84;86.06;45102.38;4989638;28;20452;-55
2023/08/01 00:33:53;;;;;;;9.27;5.13;;;;;;;-143.84;86.16;45083.34;4989376;28;20436;-55
2023/08/01 00:36:20;;;;;;;6.77;5.63;;;;;;;-143.84;86.24;45111.91;4989294;28;20512;-55
2023/08/01 00:38:48;;;;;;;6.80;6.20;;;;;;;-143.84;86.51;45104.28;4989298;28;20499;-55
2023/08/01 00:41:16;;;;;;;9.57;5.70;;;;;;;-143.84;86.88;45092.88;4989511;28;20445;-55
2023/08/01 00:43:44;;;;;;;6.93;6.33;;;;;;;-143.84;87.06;45092.88;4989651;28;20438;-55
2023/08/01 00:46:11;;;;;;;6.57;6.00;;;;;;;-143.84;87.35;45104.28;4989532;28;20503;-55
2023/08/01 00:48:38;;;;;;;7.87;6.20;;;;;;;-143.84;87.85;45102.38;4989502;28;20445;-55
2023/08/01 00:51:06;;;;;;;7.47;6.77;;;;;;;-143.84;87.80;45085.25;4989794;28;20437;-55
2023/08/01 00:53:34;;;;;;;6.83;6.33;;;;;;;-143.84;88.27;45130.94;4992218;28;20437;-55
2023/08/01 00:56:01;;;;;;;7.70;6.90;;;;;;;-143.84;88.43;45075.72;4993567;28;20515;-55
2023/08/01 00:58:28;;;;;;;7.03;6.40;;;;;;;-143.84;88.81;45096.66;4993489;28;21142;-55
2023/08/01 01:00:57;;;;;;;7.07;6.13;;;;;;;-143.84;89.13;45104.28;4993375;28;20453;-55
2023/08/01 01:03:25;;;;;;;10.33;7.13;;;;;;;-143.84;89.84;45071.91;4993096;28;20451;-55
2023/08/01 01:06:03;;;;;;;7.93;6.50;;;;;;;-143.84;89.91;45081.44;4993131;28;20492;-55
2023/08/01 01:08:31;;;;;;;7.47;6.77;;;;;;;-143.84;89.92;45089.06;4993404;28;20464;-55
2023/08/01 01:10:58;;;;;;;8.23;7.17;;;;;;;-143.84;90.20;45100.47;4993090;28;20484;-56
2023/08/01 01:13:25;;;;;;;8.47;6.40;;;;;;;-143.84;90.10;45098.56;4993084;28;20456;-55
2023/08/01 01:15:52;;;;;;;11.70;6.80;;;;;;;-143.84;90.54;45102.38;4993127;28;20440;-55
2023/08/01 01:18:21;;;;;;;8.10;7.30;;;;;;;-143.84;90.95;45100.47;4993257;28;20448;-55
2023/08/01 01:20:49;;;;;;;17.73;6.73;;;;;;;-143.84;90.97;45110.00;4992974;28;20453;-55
2023/08/01 01:23:18;;;;;;;9.73;6.87;;;;;;;-143.84;91.38;45110.00;4993356;28;20445;-55
2023/08/01 01:25:47;;;;;;;7.07;6.43;;;;;;;-143.84;91.32;45108.09;4993008;28;20455;-55
2023/08/01 01:28:16;;;;;;;7.97;7.17;;;;;;;-143.84;91.83;45104.28;4992944;28;20441;-55
2023/08/01 01:30:44;;;;;;;8.77;6.33;;;;;;;-143.84;91.89;45081.44;4992713;28;20477;-55
2023/08/01 01:33:11;;;;;;;10.03;7.47;;;;;;;-143.84;91.53;45102.38;4992753;28;20803;-55
2023/08/01 01:35:39;;;;;;;7.70;7.00;;;;;;;-143.84;91.79;45110.00;4992745;28;20513;-55
2023/08/01 01:38:07;;;;;;;6.87;5.93;;;;;;;-143.84;91.77;45094.78;4992902;28;20436;-55
2023/08/01 01:40:35;;;;;;;10.93;6.87;;;;;;;-143.84;91.83;45104.28;4992773;28;21101;-55
2023/08/01 01:43:03;;;;;;;9.00;6.63;;;;;;;-143.84;91.81;45106.19;4992905;28;20530;-55
2023/08/01 01:45:30;;;;;;;13.07;6.00;;;;;;;-143.84;91.28;45094.78;4992421;28;20437;-56
2023/08/01 01:47:57;;;;;;;9.17;6.00;;;;;;;-143.84;90.94;45108.09;4992588;28;20448;-55
2023/08/01 01:50:24;;;;;;;6.80;6.13;;;;;;;-143.84;90.63;45094.78;4992592;28;20519;-55
2023/08/01 01:52:51;;;;;;;17.93;5.83;;;;;;;-143.84;90.84;45106.19;4992605;28;20433;-55
2023/08/01 01:55:19;;;;;;;6.97;6.10;;;;;;;-143.84;90.43;45110.00;4992541;28;20507;-55
2023/08/01 01:57:47;;;;;;;7.00;6.37;;;;;;;-143.84;90.30;45117.63;4992478;28;21190;-55
2023/08/01 02:00:14;;;;;;;9.00;5.70;;;;;;;-143.84;89.90;45111.91;4992476;28;20441;-55
2023/08/01 02:02:41;;;;;;;6.50;6.00;;;;;;;-143.84;90.01;45129.03;4992396;28;21160;-55
2023/08/01 02:05:09;;;;;;;6.03;5.40;;;;;;;-143.84;89.70;45102.38;4991890;28;20445;-55
2023/08/01 02:07:36;;;;;;;8.13;6.53;;;;;;;-143.84;89.81;45089.06;4992312;28;21296;-55
2023/08/01 02:10:03;;;;;;;6.07;5.57;;;;;;;-143.84;89.58;45089.06;4992520;28;20492;-55
2023/08/01 02:12:32;;;;;;;6.67;6.07;;;;;;;-143.84;89.35;45121.44;4992420;28;20441;-55
2023/08/01 02:14:59;;;;;;;6.37;5.70;;;;;;;-143.84;88.92;45090.97;4992077;28;20448;-50
2023/08/01 02:17:26;;;;;;;6.30;5.80;;;;;;;-143.84;89.11;45096.66;4992191;28;20440;-49
2023/08/01 02:19:53;;;;;;;5.70;5.20;;;;;;;-143.84;88.98;45102.38;4991928;28;20513;-50
2023/08/01 02:22:20;;;;;;;9.23;6.10;;;;;;;-143.84;88.99;45104.28;4991973;28;20511;-48
2023/08/01 02:24:47;;;;;;;8.83;5.90;;;;;;;-143.84;88.81;45096.66;4992299;28;20507;-50
2023/08/01 02:27:14;;;;;;;7.00;6.30;;;;;;;-143.84;89.14;45100.47;4992028;28;20962;-50
2023/08/01 02:29:44;;;;;;;5.60;5.20;;;;;;;-143.84;89.02;45106.19;4991708;28;20544;-49
2023/08/01 02:32:11;;;;;;;7.00;6.40;;;;;;;-143.84;89.59;45094.78;4991868;28;20441;-50
2023/08/01 02:34:38;;;;;;;6.30;5.73;;;;;;;-143.84;89.46;45102.38;4991756;28;20452;-49
2023/08/01 02:37:06;;;;;;;10.63;6.20;;;;;;;-143.84;89.53;45110.00;4991830;28;20442;-50
2023/08/01 02:39:33;;;;;;;7.33;6.40;;;;;;;-143.84;89.53;45100.47;4991873;28;20515;-49
2023/08/01 02:42:00;;;;;;;11.27;6.40;;;;;;;-143.84;89.51;45108.09;4991835;28;20482;-49
2023/08/01 02:44:27;;;;;;;6.37;5.97;;;;;;;-143.84;89.32;45110.00;4991715;28;20438;-50
2023/08/01 02:46:56;;;;;;;5.90;5.40;;;;;;;-143.84;89.49;45129.03;4991580;28;21080;-50
2023/08/01 02:49:23;;;;;;;5.80;5.30;;;;;;;-143.84;89.33;45113.81;4991684;28;20512;-50
2023/08/01 02:51:50;;;;;;;5.70;5.30;;;;;;;-143.84;88.87;45125.22;4991849;28;20433;-51
2023/08/01 02:54:17;;;;;;;7.20;4.97;;;;;;;-143.84;88.70;45102.38;4991614;28;20449;-49
2023/08/01 02:56:44;;;;;;;7.37;5.30;;;;;;;-143.84;88.84;45100.47;4991116;28;20503;-50
2023/08/01 02:59:12;;;;;;;7.50;5.67;;;;;;;-143.84;88.98;45111.91;4991004;28;20507;-50
2023/08/01 03:01:40;;;;;;;5.37;4.90;;;;;;;-143.84;88.68;45123.34;4991249;28;20472;-49
2023/08/01 03:04:08;;;;;;;5.90;5.40;;;;;;;-143.84;88.96;45138.56;4991212;28;20472;-49
2023/08/01 03:06:35;;;;;;;7.20;4.93;;;;;;;-143.84;88.94;45110.00;4990954;28;20497;-49
2023/08/01 03:09:02;;;;;;;6.10;5.60;;;;;;;-143.84;89.41;45104.28;4991117;28;21003;-50
2023/08/01 03:11:30;;;;;;;7.00;6.30;;;;;;;-143.84;89.72;45125.22;4991080;28;21033;-50
2023/08/01 03:13:57;;;;;;;6.67;6.07;;;;;;;-143.84;89.92;45104.28;4991334;28;20939;-50
2023/08/01 03:16:24;;;;;;;5.63;5.13;;;;;;;-143.84;90.13;45098.56;4990544;28;20444;-50
2023/08/01 03:18:51;;;;;;;6.33;5.77;;;;;;;-143.84;90.13;45115.72;4991193;28;20511;-50
2023/08/01 03:21:19;;;;;;;7.93;6.33;;;;;;;-143.84;90.04;45113.81;4990971;28;20437;-50
2023/08/01 03:23:46;;;;;;;5.83;5.43;;;;;;;-143.84;89.84;45106.19;4991033;28;20508;-50
2023/08/01 03:26:15;;;;;;;11.30;5.33;;;;;;;-143.84;89.78;45110.00;4990808;28;20955;-50
2023/08/01 03:28:42;;;;;;;6.30;5.57;;;;;;;-143.84;89.64;45108.09;4990555;28;20453;-50
2023/08/01 03:31:09;;;;;;;5.27;4.87;;;;;;;-143.84;89.75;45115.72;4990987;28;20484;-49
2023/08/01 03:33:36;;;;;;;5.60;5.20;;;;;;;-143.84;89.54;45096.66;4990922;28;20445;-49
2023/08/01 03:36:04;;;;;;;7.07;6.47;;;;;;;-143.84;89.19;45102.38;4990648;28;20455;-50
2023/08/01 03:38:32;;;;;;;6.30;5.50;;;;;;;-143.84;88.81;45090.97;4990686;28;20467;-50
2023/08/01 03:41:00;;;;;;;5.53;5.13;;;;;;;-143.84;86.41;45083.34;4990447;28;20491;-50
2023/08/01 03:43:27;;;;;;;5.40;5.00;;;;;;;-143.84;84.32;45094.78;4990630;28;20449;-51
2023/08/01 03:45:54;;;;;;;10.47;6.30;;;;;;;-143.84;81.36;45090.97;4990673;28;20496;-49
2023/08/01 03:48:21;;;;;;;5.87;5.33;;;;;;;-143.84;77.68;45092.88;4990360;28;20441;-49
2023/08/01 03:50:48;;;;;;;5.13;4.73;;;;;;;-143.84;76.44;45087.16;4990533;28;20484;-50
2023/08/01 03:53:15;;;;;;;5.40;5.00;;;;;;;-143.84;73.67;45037.66;4990575;28;20444;-50
2023/08/01 03:55:45;;;;;;;5.07;4.50;;;;;;;-143.84;69.38;45079.53;4990218;28;20447;-50
2023/08/01 03:58:12;;;;;;;5.47;4.83;;;;;;;-143.84;66.15;45014.78;4990482;28;20462;-50
2023/08/01 04:00:39;;;;;;;4.67;4.37;;;;;;;-143.84;62.71;45052.88;4990695;28;20447;-50
2023/08/01 04:03:06;;;;;;;6.40;4.40;;;;;;;-143.84;63.10;45049.06;4990371;28;20448;-50
2023/08/01 04:05:33;;;;;;;5.33;4.83;;;;;;;-143.84;65.47;45087.16;4990120;28;20501;-51
2023/08/01 04:08:00;;;;;;;4.50;4.20;;;;;;;-143.84;68.22;45030.03;4990691;28;20438;-59
2023/08/01 04:10:27;;;;;;;4.30;4.00;;;;;;;-143.84;66.06;45045.25;4990469;28;20490;-59
2023/08/01 04:12:56;;;;;;;4.17;3.73;;;;;;;-143.84;63.93;45037.66;4990757;28;20459;-59
2023/08/01 04:15:23;;;;;;;4.30;4.00;;;;;;;-143.84;61.34;45031.94;4990469;28;20449;-59
2023/08/01 04:17:50;;;;;;;4.00;3.70;;;;;;;-143.84;59.18;45012.88;4990486;28;20441;-59
2023/08/01 04:20:17;;;;;;;3.80;3.60;;;;;;;-143.84;58.19;45039.53;4990436;28;20444;-59
2023/08/01 04:22:44;;;;;;;3.97;3.67;;;;;;;-143.84;57.31;45009.09;4990339;28;20519;-59
2023/08/01 04:25:11;;;;;;;4.10;3.80;;;;;;;-143.84;56.31;45001.47;4990355;28;20477;-59
2023/08/01 04:27:38;;;;;;;11.70;3.50;;;;;;;-143.84;54.82;45037.66;4989619;28;20440;-59
2023/08/01 04:30:08;;;;;;;3.40;3.20;;;;;;;-143.84;53.12;44995.75;4990274;28;20494;-59
2023/08/01 04:32:35;;;;;;;3.43;3.13;;;;;;;-143.84;52.30;45035.75;4990237;28;20456;-59
2023/08/01 04:35:02;;;;;;;3.70;3.40;;;;;;;-143.84;51.71;44995.75;4990296;28;20444;-59
2023/08/01 04:37:30;;;;;;;3.17;2.97;;;;;;;-143.84;51.43;45005.28;4990282;28;20457;-59
2023/08/01 04:39:57;;;;;;;3.37;3.17;;;;;;;-143.84;50.60;44984.31;4990311;28;20880;-59
2023/08/01 04:42:24;;;;;;;3.27;3.07;;;;;;;-143.84;49.82;45003.38;4990374;28;20506;-59
2023/08/01 04:44:51;;;;;;;5.27;3.07;;;;;;;-143.84;48.90;44997.66;4990429;28;20475;-59
2023/08/01 04:47:20;;;;;;;2.80;2.60;;;;;;;-143.84;48.71;44995.75;4990241;28;20442;-59
2023/08/01 04:49:47;;;;;;;3.20;2.97;;;;;;;-143.84;48.71;45005.28;4990101;28;20452;-59
2023/08/01 04:52:14;;;;;;;2.63;2.50;;;;;;;-143.84;48.61;45001.47;4989973;28;20561;-59
2023/08/01 04:54:41;;;;;;;4.03;2.70;;;;;;;-143.84;48.16;45007.19;4990115;28;20441;-59
2023/08/01 04:57:08;;;;;;;2.80;2.60;;;;;;;-143.84;47.83;44976.72;4989960;28;21198;-59
2023/08/01 04:59:35;;;;;;;2.87;2.67;;;;;;;-143.84;47.57;44969.09;4989958;28;20839;-59
2023/08/01 05:02:03;;;;;;;3.27;3.07;;;;;;;-143.84;47.20;44972.91;4990044;28;20510;-59
2023/08/01 05:04:31;;;;;;;3.57;2.90;;;;;;;-143.84;46.25;44982.41;4989907;28;20503;-59
2023/08/01 05:06:58;;;;;;;2.87;2.67;;;;;;;-143.84;46.23;44986.22;4989812;28;21076;-59
2023/08/01 05:09:25;;;;;;;3.20;2.90;;;;;;;-143.84;45.58;44972.91;4990027;28;20440;-59
2023/08/01 05:11:52;;;;;;;2.97;2.77;;;;;;;-143.84;45.58;44986.22;4989762;28;20575;-59
2023/08/01 05:14:19;;;;;;;2.77;2.57;;;;;;;-143.84;44.98;44950.06;4989905;28;20453;-59
2023/08/01 05:16:47;;;;;;;3.27;2.97;;;;;;;-143.84;45.18;44976.72;4989862;28;20455;-59
2023/08/01 05:19:14;;;;;;;3.03;2.83;;;;;;;-143.84;45.10;44971.00;4989444;28;20437;-58
2023/08/01 05:21:43;;;;;;;2.90;2.70;;;;;;;-143.84;44.49;44927.19;4989831;28;20822;-59
2023/08/01 05:24:10;;;;;;;2.70;2.50;;;;;;;-143.84;44.47;44974.81;4989504;28;20860;-59
2023/08/01 05:26:37;;;;;;;5.87;2.47;;;;;;;-143.84;44.07;44967.19;4989796;28;20437;-59
2023/08/01 05:29:04;;;;;;;2.70;2.50;;;;;;;-143.84;44.75;44955.75;4989846;28;20457;-58
2023/08/01 05:31:31;;;;;;;2.10;1.80;;;;;;;-143.84;44.38;44988.13;4989644;28;21003;-59
2023/08/01 05:33:59;;;;;;;2.60;2.40;;;;;;;-143.84;44.33;44942.44;4990243;28;20922;-58
2023/08/01 05:36:26;;;;;;;2.97;2.73;;;;;;;-143.84;43.69;44944.34;4989996;28;20448;-58
2023/08/01 05:38:54;;;;;;;5.57;1.93;;;;;;;-143.84;42.76;44921.50;4991117;28;20445;-58
2023/08/01 05:41:21;;;;;;;2.87;2.50;;;;;;;-143.84;42.44;44919.59;4993438;28;20446;-58
2023/08/01 05:43:50;;;;;;;2.50;2.30;;;;;;;-143.84;42.93;44946.25;4993465;28;20441;-58
2023/08/01 05:46:17;;;;;;;3.53;2.60;;;;;;;-143.84;42.14;44927.19;4993427;28;20437;-59
2023/08/01 05:48:44;;;;;;;2.33;2.10;;;;;;;-143.84;41.38;44942.44;4993313;28;20437;-58
2023/08/01 05:51:11;;;;;;;2.60;2.40;;;;;;;-143.84;41.96;44923.41;4993150;28;20484;-58
2023/08/01 05:53:38;;;;;;;2.10;2.00;;;;;;;-143.84;40.97;44915.78;4993379;28;20935;-58
2023/08/01 05:56:07;;;;;;;2.73;2.63;;;;;;;-143.84;40.94;44923.41;4993188;28;20457;-58
2023/08/01 05:58:34;;;;;;;3.93;2.10;;;;;;;-143.84;40.86;44915.78;4993256;28;20445;-58
2023/08/01 06:01:01;;;;;;;2.30;2.10;;;;;;;-143.84;40.09;44931.00;4993320;28;20534;-58
2023/08/01 06:03:28;;;;;;;1.97;1.87;;;;;;;-143.84;40.00;44900.53;4993132;28;20433;-58
2023/08/01 06:05:55;;;;;;;2.10;2.00;;;;;;;-143.84;39.42;44957.66;4993043;28;20570;-58
2023/08/01 06:08:22;;;;;;;2.70;2.17;;;;;;;-143.84;39.02;44889.13;4992941;28;20504;-58
2023/08/01 06:10:50;;;;;;;5.23;1.70;;;;;;;-143.84;39.07;44898.66;4992710;28;20997;-58
2023/08/01 06:13:19;;;;;;;2.03;1.93;;;;;;;-143.84;39.12;44887.22;4992912;28;20448;-58
2023/08/01 06:15:46;;;;;;;2.20;2.10;;;;;;;-143.84;38.85;44883.41;4993019;28;20939;-58
2023/08/01 06:18:13;;;;;;;2.70;2.50;;;;;;;-143.84;39.00;44885.31;4992770;28;20515;-58
2023/08/01 06:20:40;;;;;;;2.30;2.20;;;;;;;-143.84;38.48;44891.03;4992845;28;20448;-58
2023/08/01 06:23:07;;;;;;;2.13;2.03;;;;;;;-143.84;38.78;44911.97;4992937;28;20877;-58
2023/08/01 06:25:35;;;;;;;4.60;3.30;;;;;;;-143.84;40.16;44883.41;4992798;28;20495;-58
2023/08/01 06:28:02;;;;;;;1.63;1.53;;;;;;;-143.84;38.81;44908.16;4992853;28;20454;-58
2023/08/01 06:30:30;;;;;;;1.70;1.60;;;;;;;-143.84;38.38;44900.53;4992626;28;20445;-58
2023/08/01 06:32:58;;;;;;;1.83;1.60;;;;;;;-143.84;39.16;44892.94;4992777;28;20449;-58
2023/08/01 06:35:25;;;;;;;2.90;2.20;;;;;;;-143.84;38.67;44919.59;4992823;28;20453;-58
2023/08/01 06:37:52;;;;;;;2.83;1.83;;;;;;;-143.84;38.89;44902.44;4992564;28;20441;-58
2023/08/01 06:40:19;;;;;;;1.70;1.60;;;;;;;-143.84;39.20;44900.53;4992149;28;20449;-58
2023/08/01 06:42:46;;;;;;;3.73;1.70;;;;;;;-143.84;39.00;44910.06;4992459;28;20437;-58
2023/08/01 06:45:13;;;;;;;1.67;1.57;;;;;;;-143.84;39.70;44911.97;4992360;28;20531;-58
2023/08/01 06:47:41;;;;;;;1.90;1.80;;;;;;;-143.84;38.02;44904.34;4992428;28;20445;-58
2023/08/01 06:50:09;;;;;;;3.60;2.10;;;;;;;-143.84;38.52;44879.59;4991228;28;20460;-58
2023/08/01 06:52:36;;;;;;;2.43;2.33;;;;;;;-143.84;39.03;44902.44;4992331;28;20481;-58
2023/08/01 06:55:04;;;;;;;2.00;1.90;;;;;;;-143.84;39.18;44904.34;4992147;28;20920;-58
2023/08/01 06:57:31;;;;;;;1.90;1.80;;;;;;;-143.84;39.72;44896.75;4991887;28;20455;-58
2023/08/01 06:59:58;;;;;;;4.13;1.90;;;;;;;-143.84;38.75;44870.09;4991632;28;20916;-58
2023/08/01 07:02:26;;;;;;;2.33;2.10;;;;;;;-143.84;37.38;44873.88;4991891;28;20508;-58
2023/08/01 07:04:54;;;;;;;2.93;2.27;;;;;;;-143.84;37.41;44885.31;4991757;28;20441;-58
2023/08/01 07:07:21;;;;;;;10.67;7.43;;;;;;;-143.84;38.12;44873.88;4991537;28;20488;-58
2023/08/01 07:09:49;;;;;;;8.07;5.87;;;;;;;-143.84;38.67;44902.44;4991752;28;20503;-58
2023/08/01 07:12:16;;;;;;;7.60;6.90;;;;;;;-143.84;39.15;44898.66;4991584;28;20484;-58
2023/08/01 07:14:43;;;;;;;8.23;7.50;;;;;;;-143.84;40.07;44902.44;4991937;28;20445;-58
2023/08/01 07:17:10;;;;;;;11.13;9.20;;;;;;;-143.84;40.51;44913.88;4991748;28;20998;-58
2023/08/01 07:19:37;;;;;;;16.63;9.20;;;;;;;-143.84;41.07;44929.09;4991417;28;20449;-58
2023/08/01 07:22:06;;;;;;;11.40;8.63;;;;;;;-143.84;41.25;44917.69;4991588;28;20451;-58
2023/08/01 07:24:33;;;;;;;23.00;8.33;;;;;;;-143.84;41.29;44923.41;4991638;28;20491;-58
2023/08/01 07:27:00;;;;;;;26.30;8.40;;;;;;;-143.84;42.42;44913.88;4991702;28;21025;-58
2023/08/01 07:29:27;;;;;;;19.50;9.73;;;;;;;-143.84;42.65;44950.06;4991625;28;20438;-58
2023/08/01 07:31:54;;;;;;;12.13;8.50;;;;;;;-143.84;42.61;44925.31;4991700;28;21057;-58
2023/08/01 07:34:22;;;;;;;13.33;8.47;;;;;;;-143.84;42.71;44934.81;4991185;28;20441;-58
2023/08/01 07:36:49;;;;;;;9.93;8.30;;;;;;;-143.84;44.21;44917.69;4991233;28;20500;-58
2023/08/01 07:39:18;;;;;;;7.37;6.67;;;;;;;-143.84;45.03;44948.16;4991342;28;20453;-58
2023/08/01 07:41:45;;;;;;;10.20;7.00;;;;;;;-143.84;44.02;44934.81;4991031;28;20437;-58
2023/08/01 07:44:12;;;;;;;8.30;7.00;;;;;;;-143.84;44.39;44921.50;4990537;28;20445;-55
2023/08/01 07:46:39;;;;;;;10.13;7.47;;;;;;;-143.84;43.92;44969.09;4990047;28;20445;-55
2023/08/01 07:49:06;;;;;;;11.20;6.90;;;;;;;-143.84;44.90;44936.72;4990244;28;20452;-55
2023/08/01 07:51:34;;;;;;;7.90;7.10;;;;;;;-143.84;44.41;44938.63;4990147;28;20542;-55
2023/08/01 07:54:01;;;;;;;9.73;7.53;;;;;;;-143.84;45.21;44946.25;4990146;28;20529;-55
2023/08/01 07:56:29;;;;;;;10.37;8.63;;;;;;;-143.84;44.69;44936.72;4990406;28;20441;-55
2023/08/01 07:58:57;;;;;;;7.77;6.90;;;;;;;-143.84;46.01;44946.25;4990100;28;20472;-54
2023/08/01 08:01:24;;;;;;;10.93;8.10;;;;;;;-143.84;47.06;44976.72;4990007;28;20491;-55
2023/08/01 08:03:51;;;;;;;8.60;7.80;;;;;;;-143.84;47.09;44978.63;4989935;28;20515;-55
2023/08/01 08:06:21;;;;;;;7.63;6.93;;;;;;;-143.84;48.01;44953.88;4989881;28;20540;-55
2023/08/01 08:08:48;;;;;;;8.90;7.40;;;;;;;-143.84;47.52;44955.75;4990299;28;20519;-55
2023/08/01 08:11:15;;;;;;;11.23;7.20;;;;;;;-143.84;48.68;44976.72;4989965;28;20448;-55
2023/08/01 08:13:44;;;;;;;8.10;7.30;;;;;;;-143.84;48.20;44990.03;4990353;28;20543;-54
2023/08/01 08:16:11;;;;;;;6.93;6.43;;;;;;;-143.84;49.76;44982.41;4989847;28;21033;-54
2023/08/01 08:18:38;;;;;;;6.20;5.70;;;;;;;-143.84;49.68;44961.47;4989851;28;20471;-54
2023/08/01 08:21:05;;;;;;;7.07;5.30;;;;;;;-143.84;50.55;44944.34;4989960;28;20451;-54
2023/08/01 08:23:32;;;;;;;5.23;4.33;;;;;;;-143.84;49.36;44946.25;4990066;28;21046;-55
2023/08/01 08:26:00;;;;;;;5.73;4.50;;;;;;;-143.84;49.10;44961.47;4989734;28;20455;-55
2023/08/01 08:28:32;;;;;;;4.37;4.07;;;;;;;-143.84;51.02;44982.41;4989726;28;20850;-55
2023/08/01 08:31:01;;;;;;;5.30;4.47;;;;;;;-143.84;49.62;44969.09;4989542;28;20528;-55
2023/08/01 08:33:28;;;;;;;3.50;3.30;;;;;;;-143.84;49.65;44961.47;4989694;28;20957;-55
2023/08/01 08:35:55;;;;;;;4.93;3.53;;;;;;;-143.84;49.12;44959.56;4989731;28;20455;-55
2023/08/01 08:38:23;;;;;;;8.10;4.70;;;;;;;-143.84;48.71;44950.06;4989828;28;20500;-55
2023/08/01 08:41:01;;;;;;;4.30;4.00;;;;;;;-143.84;49.99;44974.81;4989653;28;20522;-54
2023/08/01 08:43:29;;;;;;;4.30;3.97;;;;;;;-143.84;52.61;44957.66;4989809;28;20437;-55
2023/08/01 08:46:00;;;;;;;4.63;4.33;;;;;;;-143.84;50.48;44961.47;4989692;28;20445;-54
2023/08/01 08:48:29;;;;;;;4.30;4.00;;;;;;;-143.84;50.63;44963.38;4989467;28;20953;-54
2023/08/01 08:50:59;;;;;;;4.10;3.80;;;;;;;-143.84;54.89;44997.66;4989460;28;21002;-54
2023/08/01 08:53:26;;;;;;;5.50;4.23;;;;;;;-143.84;52.70;44978.63;4989645;28;20487;-54
2023/08/01 08:55:54;;;;;;;8.90;4.57;;;;;;;-143.84;52.46;44997.66;4989483;28;20472;-54
2023/08/01 08:58:22;;;;;;;4.07;3.77;;;;;;;-143.84;52.21;44984.31;4989659;28;20443;-54
2023/08/01 09:00:49;;;;;;;4.50;4.10;;;;;;;-143.84;52.81;44997.66;4989375;28;20441;-54
2023/08/01 09:03:16;;;;;;;3.47;3.17;;;;;;;-143.84;53.32;44990.03;4989357;28;20499;-54
2023/08/01 09:05:50;;;;;;;4.17;3.27;;;;;;;-143.84;54.09;44976.72;4989048;28;20488;-55
2023/08/01 09:08:21;;;;;;;4.40;4.00;;;;;;;-143.84;53.77;45003.38;4989584;28;20457;-54
2023/08/01 09:10:48;;;;;;;4.80;3.60;;;;;;;-143.84;53.02;44997.66;4989377;28;20441;-55
2023/08/01 09:13:16;;;;;;;4.47;3.30;;;;;;;-143.84;52.89;44944.34;4990007;28;20488;-54
2023/08/01 09:15:44;;;;;;;6.40;3.37;;;;;;;-143.84;53.26;44986.22;4993329;28;20445;-54
2023/08/01 09:18:11;;;;;;;7.30;3.80;;;;;;;-143.84;53.40;44972.91;4993076;28;20480;-54
2023/08/01 09:20:47;;;;;;;3.77;3.53;;;;;;;-143.84;53.82;45010.97;4993079;28;20495;-54
2023/08/01 09:23:15;;;;;;;4.03;3.73;;;;;;;-143.84;53.80;44976.72;4992986;28;20934;-54
2023/08/01 09:25:43;;;;;;;3.73;3.37;;;;;;;-143.84;53.81;44993.84;4992962;28;20433;-54
2023/08/01 09:28:18;;;;;;;3.47;3.20;;;;;;;-143.84;52.04;44963.38;4993006;28;20791;-54
2023/08/01 09:30:50;;;;;;;2.93;2.73;;;;;;;-143.84;50.59;44980.53;4992783;28;21167;-55
2023/08/01 09:33:17;;;;;;;4.67;3.53;;;;;;;-143.84;51.67;44993.84;4992677;28;20483;-54
2023/08/01 09:35:45;;;;;;;5.00;3.87;;;;;;;-143.84;50.81;44999.56;4993046;28;20439;-54
2023/08/01 09:38:15;;;;;;;3.67;3.47;;;;;;;-143.84;51.32;44988.13;4992697;28;20507;-54
2023/08/01 09:40:44;;;;;;;3.87;3.57;;;;;;;-143.84;50.97;44967.19;4992728;28;20480;-54
2023/08/01 09:43:11;;;;;;;2.93;2.70;;;;;;;-143.84;50.70;44991.94;4992690;28;20467;-54
2023/08/01 09:45:39;;;;;;;9.43;3.87;;;;;;;-143.84;50.19;44986.22;4992499;28;20445;-54
2023/08/01 09:48:06;;;;;;;4.83;3.47;;;;;;;-143.84;50.05;44976.72;4992799;28;20465;-54
2023/08/01 09:50:33;;;;;;;4.20;3.70;;;;;;;-143.84;52.29;44959.56;4992897;28;20480;-54
2023/08/01 09:53:09;;;;;;;5.83;3.93;;;;;;;-143.84;50.24;44978.63;4992418;28;20484;-54
2023/08/01 09:55:41;;;;;;;3.50;3.30;;;;;;;-143.84;49.54;44976.72;4992640;28;20441;-55
2023/08/01 09:58:10;;;;;;;3.47;3.20;;;;;;;-143.84;50.92;44950.06;4992270;28;20452;-54
2023/08/01 10:00:38;;;;;;;3.50;3.00;;;;;;;-143.84;49.50;44961.47;4992327;28;20444;-54
2023/08/01 10:03:06;;;;;;;5.83;3.10;;;;;;;-143.84;49.35;44978.63;4992442;28;20960;-54
2023/08/01 10:05:36;;;;;;;4.33;2.80;;;;;;;-143.84;50.76;44980.53;4991907;28;20492;-55
2023/08/01 10:08:04;;;;;;;3.20;3.00;;;;;;;-143.84;50.54;44980.53;4992003;28;20447;-54
2023/08/01 10:10:31;;;;;;;3.53;3.17;;;;;;;-143.84;51.04;44971.00;4991814;28;20436;-54
2023/08/01 10:13:02;;;;;;;3.20;3.00;;;;;;;-143.84;51.21;44978.63;4991861;28;20488;-54
2023/08/01 10:15:30;;;;;;;3.30;3.10;;;;;;;-143.84;50.28;44974.81;4992276;28;20457;-54
2023/08/01 10:17:58;;;;;;;5.23;4.20;;;;;;;-143.84;49.95;44963.38;4992337;28;21421;-54
2023/08/01 10:20:26;;;;;;;4.17;3.87;;;;;;;-143.84;50.13;45014.78;4992344;28;20493;-54
2023/08/01 10:22:54;;;;;;;3.73;3.43;;;;;;;-143.84;53.44;44986.22;4992190;28;20480;-54
2023/08/01 10:25:22;;;;;;;4.30;3.90;;;;;;;-143.84;53.88;44978.63;4991802;28;20445;-54
2023/08/01 10:28:01;;;;;;;3.57;3.27;;;;;;;-143.84;52.87;44986.22;4992061;28;20466;-54
2023/08/01 10:30:29;;;;;;;3.80;3.50;;;;;;;-143.84;54.01;44990.03;4991893;28;20459;-54
2023/08/01 10:32:57;;;;;;;6.13;3.97;;;;;;;-143.84;52.44;44980.53;4991857;28;20488;-54
2023/08/01 10:35:37;;;;;;;4.83;3.90;;;;;;;-143.84;52.13;44967.19;4992214;28;20472;-54
2023/08/01 10:38:09;;;;;;;4.17;3.87;;;;;;;-143.84;51.56;44997.66;4991573;28;20962;-54
2023/08/01 10:40:38;;;;;;;8.70;3.27;;;;;;;-143.84;51.70;44978.63;4991527;28;20450;-54
2023/08/01 10:43:07;;;;;;;3.83;3.47;;;;;;;-143.84;51.79;44967.19;4991454;28;20437;-54
2023/08/01 10:45:34;;;;;;;3.60;3.40;;;;;;;-143.84;51.16;44984.31;4991840;28;20448;-54
2023/08/01 10:48:08;;;;;;;4.03;3.77;;;;;;;-143.84;51.19;44980.53;4991397;28;20831;-54
2023/08/01 10:50:35;;;;;;;3.77;3.50;;;;;;;-143.84;52.11;45014.78;4991667;28;20968;-54
2023/08/01 10:53:08;;;;;;;3.10;2.90;;;;;;;-143.84;52.84;45009.09;4991705;28;20529;-54
2023/08/01 10:55:43;;;;;;;4.40;3.60;;;;;;;-143.84;53.46;44993.84;4991468;28;20448;-54
2023/08/01 10:58:12;;;;;;;4.60;4.30;;;;;;;-143.84;52.97;44986.22;4991473;28;20530;-54
2023/08/01 11:00:39;;;;;;;4.07;3.77;;;;;;;-143.84;51.87;45003.38;4991670;28;20452;-54
2023/08/01 11:03:07;;;;;;;10.80;4.00;;;;;;;-143.84;53.91;45007.19;4991756;28;20451;-54
2023/08/01 11:05:34;;;;;;;4.00;3.63;;;;;;;-143.84;55.78;45009.09;4991031;28;20493;-54
2023/08/01 11:08:02;;;;;;;4.30;3.90;;;;;;;-143.84;53.12;44990.03;4991534;28;20776;-54
2023/08/01 11:10:31;;;;;;;4.37;3.90;;;;;;;-143.84;55.20;44991.94;4991177;28;20923;-54
2023/08/01 11:12:59;;;;;;;4.27;3.97;;;;;;;-143.84;56.32;44982.41;4990976;28;20487;-54
2023/08/01 11:15:28;;;;;;;6.00;4.17;;;;;;;-143.84;52.93;44993.84;4991009;28;21089;-54
2023/08/01 11:17:56;;;;;;;3.87;3.63;;;;;;;-143.84;52.73;44978.63;4991153;28;20441;-54
2023/08/01 11:20:27;;;;;;;5.80;4.50;;;;;;;-143.84;53.48;45007.19;4990751;28;20991;-54